sensor_id;sensor_type;location;lat;lon;timestamp;temperature;humidity
18884;DHT22;9574;47.282;9.640;2022-08-30T00:00:53;20.60;99.90
18884;DHT22;9574;47.282;9.640;2022-08-30T00:03:29;20.50;99.90
18884;DHT22;9574;47.282;9.640;2022-08-30T00:05:56;20.40;99.90
18884;DHT22;9574;47.282;9.640;2022-08-30T00:08:23;20.30;99.90
18884;DHT22;9574;47.282;9.640;2022-08-30T00:10:51;20.30;99.90
18884;DHT22;9574;47.282;9.640;2022-08-30T00:13:18;20.20;99.90
18884;DHT22;9574;47.282;9.640;2022-08-30T00:15:47;20.30;99.90
18884;DHT22;9574;47.282;9.640;2022-08-30T00:18:15;20.50;99.90
18884;DHT22;9574;47.282;9.640;2022-08-30T00:20:44;20.50;99.90
18884;DHT22;9574;47.282;9.640;2022-08-30T00:23:12;20.60;99.90
18884;DHT22;9574;47.282;9.640;2022-08-30T00:25:39;20.60;99.90
18884;DHT22;9574;47.282;9.640;2022-08-30T00:28:06;20.60;99.90
18884;DHT22;9574;47.282;9.640;2022-08-30T00:30:36;20.40;99.90
18884;DHT22;9574;47.282;9.640;2022-08-30T00:33:05;20.30;99.90
18884;DHT22;9574;47.282;9.640;2022-08-30T00:35:32;20.20;99.90
18884;DHT22;9574;47.282;9.640;2022-08-30T00:37:59;20.10;99.90
18884;DHT22;9574;47.282;9.640;2022-08-30T00:40:27;20.00;99.90
18884;DHT22;9574;47.282;9.640;2022-08-30T00:42:55;20.10;99.90
18884;DHT22;9574;47.282;9.640;2022-08-30T00:45:26;20.00;99.90
18884;DHT22;9574;47.282;9.640;2022-08-30T00:47:54;20.10;99.90
18884;DHT22;9574;47.282;9.640;2022-08-30T00:50:27;20.10;99.90
18884;DHT22;9574;47.282;9.640;2022-08-30T00:52:57;20.10;99.90
18884;DHT22;9574;47.282;9.640;2022-08-30T00:55:26;19.90;99.90
18884;DHT22;9574;47.282;9.640;2022-08-30T00:57:57;19.90;99.90
18884;DHT22;9574;47.282;9.640;2022-08-30T01:00:25;19.90;99.90
18884;DHT22;9574;47.282;9.640;2022-08-30T01:02:53;19.90;99.90
18884;DHT22;9574;47.282;9.640;2022-08-30T01:05:20;20.00;99.90
18884;DHT22;9574;47.282;9.640;2022-08-30T01:07:49;20.00;99.90
18884;DHT22;9574;47.282;9.640;2022-08-30T01:10:17;20.00;99.90
18884;DHT22;9574;47.282;9.640;2022-08-30T01:12:45;20.10;99.90
18884;DHT22;9574;47.282;9.640;2022-08-30T01:15:14;20.10;99.90
18884;DHT22;9574;47.282;9.640;2022-08-30T01:17:43;20.10;99.90
18884;DHT22;9574;47.282;9.640;2022-08-30T01:20:13;20.00;99.90
18884;DHT22;9574;47.282;9.640;2022-08-30T01:25:17;19.70;99.90
18884;DHT22;9574;47.282;9.640;2022-08-30T01:27:48;19.80;99.90
18884;DHT22;9574;47.282;9.640;2022-08-30T01:30:16;19.90;99.90
18884;DHT22;9574;47.282;9.640;2022-08-30T01:32:45;19.80;99.90
18884;DHT22;9574;47.282;9.640;2022-08-30T01:35:14;19.80;99.90
18884;DHT22;9574;47.282;9.640;2022-08-30T01:37:42;19.60;99.90
18884;DHT22;9574;47.282;9.640;2022-08-30T01:40:11;19.60;99.90
18884;DHT22;9574;47.282;9.640;2022-08-30T01:42:40;19.60;99.90
18884;DHT22;9574;47.282;9.640;2022-08-30T01:45:08;19.60;99.90
18884;DHT22;9574;47.282;9.640;2022-08-30T01:47:36;19.70;99.90
18884;DHT22;9574;47.282;9.640;2022-08-30T01:50:04;19.80;99.90
18884;DHT22;9574;47.282;9.640;2022-08-30T01:52:32;19.90;99.90
18884;DHT22;9574;47.282;9.640;2022-08-30T01:54:59;19.80;99.90
18884;DHT22;9574;47.282;9.640;2022-08-30T01:57:26;19.60;99.90
18884;DHT22;9574;47.282;9.640;2022-08-30T01:59:55;19.40;99.90
18884;DHT22;9574;47.282;9.640;2022-08-30T02:02:24;19.50;99.90
18884;DHT22;9574;47.282;9.640;2022-08-30T02:04:53;19.50;99.90
18884;DHT22;9574;47.282;9.640;2022-08-30T02:07:21;19.60;99.90
18884;DHT22;9574;47.282;9.640;2022-08-30T02:09:48;19.50;99.90
18884;DHT22;9574;47.282;9.640;2022-08-30T02:12:16;19.50;99.90
18884;DHT22;9574;47.282;9.640;2022-08-30T02:14:43;19.40;99.90
18884;DHT22;9574;47.282;9.640;2022-08-30T02:17:13;19.40;99.90
18884;DHT22;9574;47.282;9.640;2022-08-30T02:19:41;19.40;99.90
18884;DHT22;9574;47.282;9.640;2022-08-30T02:22:08;19.50;99.90
18884;DHT22;9574;47.282;9.640;2022-08-30T02:24:35;19.40;99.90
18884;DHT22;9574;47.282;9.640;2022-08-30T02:27:03;19.40;99.90
18884;DHT22;9574;47.282;9.640;2022-08-30T02:29:30;19.40;99.90
18884;DHT22;9574;47.282;9.640;2022-08-30T02:31:57;19.50;99.90
18884;DHT22;9574;47.282;9.640;2022-08-30T02:34:25;19.90;99.90
18884;DHT22;9574;47.282;9.640;2022-08-30T02:36:52;19.70;99.90
18884;DHT22;9574;47.282;9.640;2022-08-30T02:39:20;19.60;99.90
18884;DHT22;9574;47.282;9.640;2022-08-30T02:41:47;19.40;99.90
18884;DHT22;9574;47.282;9.640;2022-08-30T02:44:14;19.30;99.90
18884;DHT22;9574;47.282;9.640;2022-08-30T02:46:41;19.30;99.90
18884;DHT22;9574;47.282;9.640;2022-08-30T02:49:08;19.20;99.90
18884;DHT22;9574;47.282;9.640;2022-08-30T02:51:37;19.20;99.90
18884;DHT22;9574;47.282;9.640;2022-08-30T02:54:04;19.20;99.90
18884;DHT22;9574;47.282;9.640;2022-08-30T02:56:31;19.20;99.90
18884;DHT22;9574;47.282;9.640;2022-08-30T02:58:59;19.40;99.90
18884;DHT22;9574;47.282;9.640;2022-08-30T03:01:26;19.30;99.90
18884;DHT22;9574;47.282;9.640;2022-08-30T03:03:53;19.40;99.90
18884;DHT22;9574;47.282;9.640;2022-08-30T03:06:20;19.30;99.90
18884;DHT22;9574;47.282;9.640;2022-08-30T03:08:48;19.20;99.90
18884;DHT22;9574;47.282;9.640;2022-08-30T03:11:15;19.20;99.90
18884;DHT22;9574;47.282;9.640;2022-08-30T03:13:42;19.20;99.90
18884;DHT22;9574;47.282;9.640;2022-08-30T03:16:10;19.10;99.90
18884;DHT22;9574;47.282;9.640;2022-08-30T03:18:37;19.00;99.90
18884;DHT22;9574;47.282;9.640;2022-08-30T03:21:09;18.90;99.90
18884;DHT22;9574;47.282;9.640;2022-08-30T03:23:36;18.90;99.90
18884;DHT22;9574;47.282;9.640;2022-08-30T03:26:07;19.00;99.90
18884;DHT22;9574;47.282;9.640;2022-08-30T03:28:35;19.00;99.90
18884;DHT22;9574;47.282;9.640;2022-08-30T03:31:02;18.90;99.90
18884;DHT22;9574;47.282;9.640;2022-08-30T03:33:29;18.90;99.90
18884;DHT22;9574;47.282;9.640;2022-08-30T03:35:56;18.90;99.90
18884;DHT22;9574;47.282;9.640;2022-08-30T03:38:23;19.00;99.90
18884;DHT22;9574;47.282;9.640;2022-08-30T03:40:50;19.10;99.90
18884;DHT22;9574;47.282;9.640;2022-08-30T03:43:19;19.50;99.90
18884;DHT22;9574;47.282;9.640;2022-08-30T03:45:46;19.40;99.90
18884;DHT22;9574;47.282;9.640;2022-08-30T03:48:13;19.30;99.90
18884;DHT22;9574;47.282;9.640;2022-08-30T03:50:40;19.30;99.90
18884;DHT22;9574;47.282;9.640;2022-08-30T03:53:07;19.30;99.90
18884;DHT22;9574;47.282;9.640;2022-08-30T03:55:34;19.20;99.90
18884;DHT22;9574;47.282;9.640;2022-08-30T03:58:01;19.00;99.90
18884;DHT22;9574;47.282;9.640;2022-08-30T04:00:29;18.90;99.90
18884;DHT22;9574;47.282;9.640;2022-08-30T04:02:56;18.70;99.90
18884;DHT22;9574;47.282;9.640;2022-08-30T04:05:23;18.70;99.90
18884;DHT22;9574;47.282;9.640;2022-08-30T04:07:52;18.70;99.90
18884;DHT22;9574;47.282;9.640;2022-08-30T04:10:19;18.70;99.90
18884;DHT22;9574;47.282;9.640;2022-08-30T04:12:46;18.70;99.90
18884;DHT22;9574;47.282;9.640;2022-08-30T04:15:14;18.70;99.90
18884;DHT22;9574;47.282;9.640;2022-08-30T04:17:42;18.60;99.90
18884;DHT22;9574;47.282;9.640;2022-08-30T04:20:09;18.50;99.90
18884;DHT22;9574;47.282;9.640;2022-08-30T04:22:37;18.50;99.90
18884;DHT22;9574;47.282;9.640;2022-08-30T04:25:06;18.40;99.90
18884;DHT22;9574;47.282;9.640;2022-08-30T04:27:33;18.40;99.90
18884;DHT22;9574;47.282;9.640;2022-08-30T04:30:00;18.30;99.90
18884;DHT22;9574;47.282;9.640;2022-08-30T04:32:27;18.50;99.90
18884;DHT22;9574;47.282;9.640;2022-08-30T04:34:57;18.50;99.90
18884;DHT22;9574;47.282;9.640;2022-08-30T04:37:24;18.40;99.90
18884;DHT22;9574;47.282;9.640;2022-08-30T04:39:54;18.50;99.90
18884;DHT22;9574;47.282;9.640;2022-08-30T04:42:22;18.50;99.90
18884;DHT22;9574;47.282;9.640;2022-08-30T04:44:49;18.40;99.90
18884;DHT22;9574;47.282;9.640;2022-08-30T04:47:16;18.30;99.90
18884;DHT22;9574;47.282;9.640;2022-08-30T04:49:44;18.50;99.90
18884;DHT22;9574;47.282;9.640;2022-08-30T04:52:12;18.20;99.90
18884;DHT22;9574;47.282;9.640;2022-08-30T04:54:39;18.20;99.90
18884;DHT22;9574;47.282;9.640;2022-08-30T04:57:06;18.20;99.90
18884;DHT22;9574;47.282;9.640;2022-08-30T04:59:33;18.20;99.90
18884;DHT22;9574;47.282;9.640;2022-08-30T05:02:00;18.00;99.90
18884;DHT22;9574;47.282;9.640;2022-08-30T05:04:27;18.10;99.90
18884;DHT22;9574;47.282;9.640;2022-08-30T05:06:54;18.10;99.90
18884;DHT22;9574;47.282;9.640;2022-08-30T05:09:23;18.20;99.90
18884;DHT22;9574;47.282;9.640;2022-08-30T05:11:49;18.30;99.90
18884;DHT22;9574;47.282;9.640;2022-08-30T05:14:16;18.30;99.90
18884;DHT22;9574;47.282;9.640;2022-08-30T05:16:43;18.50;99.90
18884;DHT22;9574;47.282;9.640;2022-08-30T05:19:11;18.30;99.90
18884;DHT22;9574;47.282;9.640;2022-08-30T05:21:38;18.40;99.90
18884;DHT22;9574;47.282;9.640;2022-08-30T05:24:06;18.30;99.90
18884;DHT22;9574;47.282;9.640;2022-08-30T05:26:36;18.40;99.90
18884;DHT22;9574;47.282;9.640;2022-08-30T05:29:04;18.40;99.90
18884;DHT22;9574;47.282;9.640;2022-08-30T05:31:33;18.40;99.90
18884;DHT22;9574;47.282;9.640;2022-08-30T05:34:00;18.30;99.90
18884;DHT22;9574;47.282;9.640;2022-08-30T05:36:28;18.20;99.90
18884;DHT22;9574;47.282;9.640;2022-08-30T05:38:56;18.10;99.90
18884;DHT22;9574;47.282;9.640;2022-08-30T05:41:23;18.20;99.90
18884;DHT22;9574;47.282;9.640;2022-08-30T05:43:53;18.40;99.90
18884;DHT22;9574;47.282;9.640;2022-08-30T05:46:21;18.50;99.90
18884;DHT22;9574;47.282;9.640;2022-08-30T05:48:49;18.60;99.90
18884;DHT22;9574;47.282;9.640;2022-08-30T05:51:17;18.60;99.90
18884;DHT22;9574;47.282;9.640;2022-08-30T05:53:46;18.70;99.90
18884;DHT22;9574;47.282;9.640;2022-08-30T05:56:17;18.70;99.90
18884;DHT22;9574;47.282;9.640;2022-08-30T05:58:44;18.80;99.90
18884;DHT22;9574;47.282;9.640;2022-08-30T06:01:20;18.90;99.90
18884;DHT22;9574;47.282;9.640;2022-08-30T06:03:47;18.90;99.90
18884;DHT22;9574;47.282;9.640;2022-08-30T06:06:14;19.00;99.90
18884;DHT22;9574;47.282;9.640;2022-08-30T06:08:42;19.10;99.90
18884;DHT22;9574;47.282;9.640;2022-08-30T06:11:10;19.20;99.90
18884;DHT22;9574;47.282;9.640;2022-08-30T06:13:38;19.30;99.90
18884;DHT22;9574;47.282;9.640;2022-08-30T06:16:06;19.30;99.90
18884;DHT22;9574;47.282;9.640;2022-08-30T06:18:34;19.40;99.90
18884;DHT22;9574;47.282;9.640;2022-08-30T06:21:01;19.50;99.90
18884;DHT22;9574;47.282;9.640;2022-08-30T06:23:28;19.50;99.90
18884;DHT22;9574;47.282;9.640;2022-08-30T06:25:55;19.60;99.90
18884;DHT22;9574;47.282;9.640;2022-08-30T06:28:22;19.60;99.90
18884;DHT22;9574;47.282;9.640;2022-08-30T06:30:49;19.70;99.90
18884;DHT22;9574;47.282;9.640;2022-08-30T06:33:16;19.70;99.90
18884;DHT22;9574;47.282;9.640;2022-08-30T06:35:45;19.80;99.90
18884;DHT22;9574;47.282;9.640;2022-08-30T06:38:12;19.90;99.90
18884;DHT22;9574;47.282;9.640;2022-08-30T06:40:39;20.00;99.90
18884;DHT22;9574;47.282;9.640;2022-08-30T06:43:06;20.00;99.90
18884;DHT22;9574;47.282;9.640;2022-08-30T06:45:34;20.10;99.90
18884;DHT22;9574;47.282;9.640;2022-08-30T06:48:01;20.20;99.90
18884;DHT22;9574;47.282;9.640;2022-08-30T06:50:28;20.30;99.90
18884;DHT22;9574;47.282;9.640;2022-08-30T06:52:57;20.50;99.90
18884;DHT22;9574;47.282;9.640;2022-08-30T06:55:30;20.50;99.90
18884;DHT22;9574;47.282;9.640;2022-08-30T06:57:58;20.50;99.90
18884;DHT22;9574;47.282;9.640;2022-08-30T07:00:25;20.60;99.90
18884;DHT22;9574;47.282;9.640;2022-08-30T07:02:53;20.80;99.90
18884;DHT22;9574;47.282;9.640;2022-08-30T07:05:20;20.80;99.90
18884;DHT22;9574;47.282;9.640;2022-08-30T07:07:48;20.90;99.90
18884;DHT22;9574;47.282;9.640;2022-08-30T07:10:16;21.10;99.90
18884;DHT22;9574;47.282;9.640;2022-08-30T07:12:43;21.20;99.90
18884;DHT22;9574;47.282;9.640;2022-08-30T07:15:11;21.50;99.90
18884;DHT22;9574;47.282;9.640;2022-08-30T07:17:38;21.60;99.90
18884;DHT22;9574;47.282;9.640;2022-08-30T07:20:22;21.70;99.90
18884;DHT22;9574;47.282;9.640;2022-08-30T07:22:49;21.80;99.90
18884;DHT22;9574;47.282;9.640;2022-08-30T07:25:18;22.20;99.90
18884;DHT22;9574;47.282;9.640;2022-08-30T07:27:45;22.40;99.90
18884;DHT22;9574;47.282;9.640;2022-08-30T07:30:12;22.50;99.90
18884;DHT22;9574;47.282;9.640;2022-08-30T07:32:39;22.80;99.90
18884;DHT22;9574;47.282;9.640;2022-08-30T07:35:07;23.00;99.90
18884;DHT22;9574;47.282;9.640;2022-08-30T07:37:34;23.20;99.90
18884;DHT22;9574;47.282;9.640;2022-08-30T07:40:01;23.30;99.90
18884;DHT22;9574;47.282;9.640;2022-08-30T07:42:29;23.20;99.90
18884;DHT22;9574;47.282;9.640;2022-08-30T07:44:56;23.40;99.90
18884;DHT22;9574;47.282;9.640;2022-08-30T07:47:23;23.60;99.90
18884;DHT22;9574;47.282;9.640;2022-08-30T07:49:50;23.60;99.90
18884;DHT22;9574;47.282;9.640;2022-08-30T07:52:17;23.60;99.90
18884;DHT22;9574;47.282;9.640;2022-08-30T07:54:44;23.80;99.90
18884;DHT22;9574;47.282;9.640;2022-08-30T07:57:11;24.00;99.90
18884;DHT22;9574;47.282;9.640;2022-08-30T07:59:40;24.00;99.90
18884;DHT22;9574;47.282;9.640;2022-08-30T08:02:07;24.00;99.90
18884;DHT22;9574;47.282;9.640;2022-08-30T08:04:34;23.90;99.90
18884;DHT22;9574;47.282;9.640;2022-08-30T08:07:01;24.00;99.90
18884;DHT22;9574;47.282;9.640;2022-08-30T08:09:28;24.30;99.90
18884;DHT22;9574;47.282;9.640;2022-08-30T08:11:55;24.50;99.90
18884;DHT22;9574;47.282;9.640;2022-08-30T08:14:22;24.70;99.90
18884;DHT22;9574;47.282;9.640;2022-08-30T08:16:50;24.60;99.90
18884;DHT22;9574;47.282;9.640;2022-08-30T08:19:18;24.70;99.90
18884;DHT22;9574;47.282;9.640;2022-08-30T08:21:45;24.80;99.90
18884;DHT22;9574;47.282;9.640;2022-08-30T08:24:12;24.80;99.90
18884;DHT22;9574;47.282;9.640;2022-08-30T08:26:39;25.00;99.90
18884;DHT22;9574;47.282;9.640;2022-08-30T08:29:07;25.30;99.90
18884;DHT22;9574;47.282;9.640;2022-08-30T08:31:35;25.40;99.90
18884;DHT22;9574;47.282;9.640;2022-08-30T08:34:04;25.30;99.90
18884;DHT22;9574;47.282;9.640;2022-08-30T08:36:31;25.30;99.90
18884;DHT22;9574;47.282;9.640;2022-08-30T08:38:59;25.20;99.90
18884;DHT22;9574;47.282;9.640;2022-08-30T08:41:37;25.40;99.90
18884;DHT22;9574;47.282;9.640;2022-08-30T08:44:11;25.80;99.90
18884;DHT22;9574;47.282;9.640;2022-08-30T08:46:43;26.00;99.90
18884;DHT22;9574;47.282;9.640;2022-08-30T08:49:15;26.10;99.90
18884;DHT22;9574;47.282;9.640;2022-08-30T08:51:42;26.20;99.90
18884;DHT22;9574;47.282;9.640;2022-08-30T08:54:33;26.30;99.90
18884;DHT22;9574;47.282;9.640;2022-08-30T08:57:02;26.40;99.90
18884;DHT22;9574;47.282;9.640;2022-08-30T08:59:30;26.60;99.90
18884;DHT22;9574;47.282;9.640;2022-08-30T09:01:58;26.80;99.90
18884;DHT22;9574;47.282;9.640;2022-08-30T09:04:33;26.60;99.90
18884;DHT22;9574;47.282;9.640;2022-08-30T09:07:03;26.80;99.90
18884;DHT22;9574;47.282;9.640;2022-08-30T09:12:06;27.10;99.90
18884;DHT22;9574;47.282;9.640;2022-08-30T09:14:36;27.20;99.90
18884;DHT22;9574;47.282;9.640;2022-08-30T09:17:05;27.40;99.90
18884;DHT22;9574;47.282;9.640;2022-08-30T09:19:38;27.20;99.90
18884;DHT22;9574;47.282;9.640;2022-08-30T09:22:22;27.50;99.90
18884;DHT22;9574;47.282;9.640;2022-08-30T09:24:53;27.40;99.90
18884;DHT22;9574;47.282;9.640;2022-08-30T09:27:25;27.40;99.90
18884;DHT22;9574;47.282;9.640;2022-08-30T09:29:55;27.50;99.90
18884;DHT22;9574;47.282;9.640;2022-08-30T09:32:31;27.50;99.90
18884;DHT22;9574;47.282;9.640;2022-08-30T09:35:02;27.50;99.90
18884;DHT22;9574;47.282;9.640;2022-08-30T09:37:38;27.90;99.90
18884;DHT22;9574;47.282;9.640;2022-08-30T09:40:12;28.20;99.90
18884;DHT22;9574;47.282;9.640;2022-08-30T09:42:40;28.40;99.90
18884;DHT22;9574;47.282;9.640;2022-08-30T09:45:18;28.60;99.90
18884;DHT22;9574;47.282;9.640;2022-08-30T09:47:45;28.70;99.90
18884;DHT22;9574;47.282;9.640;2022-08-30T09:50:15;28.70;99.90
18884;DHT22;9574;47.282;9.640;2022-08-30T09:52:56;28.90;99.90
18884;DHT22;9574;47.282;9.640;2022-08-30T09:55:54;29.00;99.90
18884;DHT22;9574;47.282;9.640;2022-08-30T09:58:34;29.10;99.90
18884;DHT22;9574;47.282;9.640;2022-08-30T10:01:10;29.10;99.90
18884;DHT22;9574;47.282;9.640;2022-08-30T10:03:45;29.20;99.90
18884;DHT22;9574;47.282;9.640;2022-08-30T10:06:24;29.20;99.90
18884;DHT22;9574;47.282;9.640;2022-08-30T10:09:02;29.30;99.90
18884;DHT22;9574;47.282;9.640;2022-08-30T10:11:36;29.10;99.90
18884;DHT22;9574;47.282;9.640;2022-08-30T10:17:12;28.50;99.90
18884;DHT22;9574;47.282;9.640;2022-08-30T10:19:50;28.40;99.90
18884;DHT22;9574;47.282;9.640;2022-08-30T10:22:25;28.50;99.90
18884;DHT22;9574;47.282;9.640;2022-08-30T10:25:01;28.50;99.90
18884;DHT22;9574;47.282;9.640;2022-08-30T10:27:33;28.70;99.90
18884;DHT22;9574;47.282;9.640;2022-08-30T10:30:05;28.70;99.90
18884;DHT22;9574;47.282;9.640;2022-08-30T10:32:36;28.60;99.90
18884;DHT22;9574;47.282;9.640;2022-08-30T10:35:08;28.60;99.90
18884;DHT22;9574;47.282;9.640;2022-08-30T10:37:39;28.80;99.90
18884;DHT22;9574;47.282;9.640;2022-08-30T10:40:12;29.00;99.90
18884;DHT22;9574;47.282;9.640;2022-08-30T10:43:01;29.30;99.90
18884;DHT22;9574;47.282;9.640;2022-08-30T10:45:29;29.60;99.90
18884;DHT22;9574;47.282;9.640;2022-08-30T10:48:04;29.70;99.90
18884;DHT22;9574;47.282;9.640;2022-08-30T10:50:39;29.80;99.90
18884;DHT22;9574;47.282;9.640;2022-08-30T10:53:11;29.80;99.90
18884;DHT22;9574;47.282;9.640;2022-08-30T10:55:45;29.70;99.90
18884;DHT22;9574;47.282;9.640;2022-08-30T10:58:14;29.40;99.90
18884;DHT22;9574;47.282;9.640;2022-08-30T11:00:55;29.20;99.90
18884;DHT22;9574;47.282;9.640;2022-08-30T11:03:48;29.00;99.90
18884;DHT22;9574;47.282;9.640;2022-08-30T11:06:24;28.70;99.90
18884;DHT22;9574;47.282;9.640;2022-08-30T11:09:11;28.60;99.90
18884;DHT22;9574;47.282;9.640;2022-08-30T11:14:32;28.90;99.90
18884;DHT22;9574;47.282;9.640;2022-08-30T11:17:00;28.70;99.90
18884;DHT22;9574;47.282;9.640;2022-08-30T11:19:33;28.90;99.90
18884;DHT22;9574;47.282;9.640;2022-08-30T11:22:11;29.20;99.90
18884;DHT22;9574;47.282;9.640;2022-08-30T11:25:08;29.40;99.90
18884;DHT22;9574;47.282;9.640;2022-08-30T11:27:41;29.60;99.90
18884;DHT22;9574;47.282;9.640;2022-08-30T11:30:47;29.90;99.90
18884;DHT22;9574;47.282;9.640;2022-08-30T11:33:34;29.90;99.90
18884;DHT22;9574;47.282;9.640;2022-08-30T11:36:05;29.90;99.90
18884;DHT22;9574;47.282;9.640;2022-08-30T11:39:02;30.00;99.90
18884;DHT22;9574;47.282;9.640;2022-08-30T11:41:34;30.10;99.90
18884;DHT22;9574;47.282;9.640;2022-08-30T11:44:13;30.30;99.90
18884;DHT22;9574;47.282;9.640;2022-08-30T11:46:41;30.30;99.90
18884;DHT22;9574;47.282;9.640;2022-08-30T11:49:41;30.50;99.90
18884;DHT22;9574;47.282;9.640;2022-08-30T11:52:23;30.50;99.90
18884;DHT22;9574;47.282;9.640;2022-08-30T11:55:07;30.50;99.90
18884;DHT22;9574;47.282;9.640;2022-08-30T11:57:46;30.50;99.90
18884;DHT22;9574;47.282;9.640;2022-08-30T12:00:27;30.60;99.90
18884;DHT22;9574;47.282;9.640;2022-08-30T12:02:56;30.80;99.90
18884;DHT22;9574;47.282;9.640;2022-08-30T12:05:53;30.80;99.90
18884;DHT22;9574;47.282;9.640;2022-08-30T12:08:53;30.70;99.90
18884;DHT22;9574;47.282;9.640;2022-08-30T12:14:38;30.70;99.90
18884;DHT22;9574;47.282;9.640;2022-08-30T12:17:14;30.60;99.90
18884;DHT22;9574;47.282;9.640;2022-08-30T12:20:00;30.50;99.90
18884;DHT22;9574;47.282;9.640;2022-08-30T12:22:27;30.40;99.90
18884;DHT22;9574;47.282;9.640;2022-08-30T12:24:55;30.40;99.90
18884;DHT22;9574;47.282;9.640;2022-08-30T12:27:27;30.30;99.90
18884;DHT22;9574;47.282;9.640;2022-08-30T12:29:57;30.30;99.90
18884;DHT22;9574;47.282;9.640;2022-08-30T12:32:26;30.20;99.90
18884;DHT22;9574;47.282;9.640;2022-08-30T12:34:55;30.20;99.90
18884;DHT22;9574;47.282;9.640;2022-08-30T12:37:25;30.20;99.90
18884;DHT22;9574;47.282;9.640;2022-08-30T12:40:06;30.20;99.90
18884;DHT22;9574;47.282;9.640;2022-08-30T12:42:36;29.90;99.90
18884;DHT22;9574;47.282;9.640;2022-08-30T12:45:09;29.90;99.90
18884;DHT22;9574;47.282;9.640;2022-08-30T12:47:42;29.90;99.90
18884;DHT22;9574;47.282;9.640;2022-08-30T12:50:15;29.80;99.90
18884;DHT22;9574;47.282;9.640;2022-08-30T12:52:43;29.80;99.90
18884;DHT22;9574;47.282;9.640;2022-08-30T12:55:16;29.80;99.90
18884;DHT22;9574;47.282;9.640;2022-08-30T12:57:55;29.90;99.90
18884;DHT22;9574;47.282;9.640;2022-08-30T13:00:26;30.00;99.90
18884;DHT22;9574;47.282;9.640;2022-08-30T13:02:54;30.30;99.90
18884;DHT22;9574;47.282;9.640;2022-08-30T13:05:44;30.60;99.90
18884;DHT22;9574;47.282;9.640;2022-08-30T13:08:17;30.90;99.90
18884;DHT22;9574;47.282;9.640;2022-08-30T13:10:51;31.00;99.90
18884;DHT22;9574;47.282;9.640;2022-08-30T13:13:33;31.20;99.90
18884;DHT22;9574;47.282;9.640;2022-08-30T13:16:25;31.20;99.90
18884;DHT22;9574;47.282;9.640;2022-08-30T13:18:53;31.10;99.90
18884;DHT22;9574;47.282;9.640;2022-08-30T13:21:24;31.20;99.90
18884;DHT22;9574;47.282;9.640;2022-08-30T13:23:55;31.30;99.90
18884;DHT22;9574;47.282;9.640;2022-08-30T13:26:23;31.30;99.90
18884;DHT22;9574;47.282;9.640;2022-08-30T13:28:54;31.20;99.90
18884;DHT22;9574;47.282;9.640;2022-08-30T13:31:23;31.40;99.90
18884;DHT22;9574;47.282;9.640;2022-08-30T13:33:52;31.50;99.90
18884;DHT22;9574;47.282;9.640;2022-08-30T13:36:20;31.50;99.90
18884;DHT22;9574;47.282;9.640;2022-08-30T13:38:48;31.40;99.90
18884;DHT22;9574;47.282;9.640;2022-08-30T13:41:16;31.50;99.90
18884;DHT22;9574;47.282;9.640;2022-08-30T13:43:45;31.50;99.90
18884;DHT22;9574;47.282;9.640;2022-08-30T13:46:12;31.60;99.90
18884;DHT22;9574;47.282;9.640;2022-08-30T13:48:41;31.50;99.90
18884;DHT22;9574;47.282;9.640;2022-08-30T13:51:08;31.40;99.90
18884;DHT22;9574;47.282;9.640;2022-08-30T13:53:35;31.40;99.90
18884;DHT22;9574;47.282;9.640;2022-08-30T13:56:03;31.30;99.90
18884;DHT22;9574;47.282;9.640;2022-08-30T13:58:30;31.10;99.90
18884;DHT22;9574;47.282;9.640;2022-08-30T14:00:58;31.10;99.90
18884;DHT22;9574;47.282;9.640;2022-08-30T14:03:25;31.10;99.90
18884;DHT22;9574;47.282;9.640;2022-08-30T14:05:53;31.20;99.90
18884;DHT22;9574;47.282;9.640;2022-08-30T14:08:25;31.20;99.90
18884;DHT22;9574;47.282;9.640;2022-08-30T14:10:53;31.30;99.90
18884;DHT22;9574;47.282;9.640;2022-08-30T14:13:21;31.30;99.90
18884;DHT22;9574;47.282;9.640;2022-08-30T14:15:49;31.50;99.90
18884;DHT22;9574;47.282;9.640;2022-08-30T14:18:16;31.60;99.90
18884;DHT22;9574;47.282;9.640;2022-08-30T14:20:43;31.80;99.90
18884;DHT22;9574;47.282;9.640;2022-08-30T14:23:13;31.70;99.90
18884;DHT22;9574;47.282;9.640;2022-08-30T14:25:40;31.60;99.90
18884;DHT22;9574;47.282;9.640;2022-08-30T14:28:07;31.60;99.90
18884;DHT22;9574;47.282;9.640;2022-08-30T14:30:35;31.60;99.90
18884;DHT22;9574;47.282;9.640;2022-08-30T14:33:03;31.30;99.90
18884;DHT22;9574;47.282;9.640;2022-08-30T14:35:30;31.30;99.90
18884;DHT22;9574;47.282;9.640;2022-08-30T14:37:57;31.00;99.90
18884;DHT22;9574;47.282;9.640;2022-08-30T14:40:25;30.90;99.90
18884;DHT22;9574;47.282;9.640;2022-08-30T14:42:52;31.00;99.90
18884;DHT22;9574;47.282;9.640;2022-08-30T14:45:19;31.10;99.90
18884;DHT22;9574;47.282;9.640;2022-08-30T14:47:46;31.20;99.90
18884;DHT22;9574;47.282;9.640;2022-08-30T14:50:13;31.40;99.90
18884;DHT22;9574;47.282;9.640;2022-08-30T14:52:41;31.40;99.90
18884;DHT22;9574;47.282;9.640;2022-08-30T14:55:09;31.40;99.90
18884;DHT22;9574;47.282;9.640;2022-08-30T14:57:38;31.50;99.90
18884;DHT22;9574;47.282;9.640;2022-08-30T15:00:09;31.30;99.90
18884;DHT22;9574;47.282;9.640;2022-08-30T15:02:36;31.10;99.90
18884;DHT22;9574;47.282;9.640;2022-08-30T15:05:04;31.10;99.90
18884;DHT22;9574;47.282;9.640;2022-08-30T15:07:31;31.10;99.90
18884;DHT22;9574;47.282;9.640;2022-08-30T15:12:27;30.80;99.90
18884;DHT22;9574;47.282;9.640;2022-08-30T15:14:55;31.00;99.90
18884;DHT22;9574;47.282;9.640;2022-08-30T15:17:22;31.00;99.90
18884;DHT22;9574;47.282;9.640;2022-08-30T15:19:49;31.00;99.90
18884;DHT22;9574;47.282;9.640;2022-08-30T15:22:17;31.00;99.90
18884;DHT22;9574;47.282;9.640;2022-08-30T15:24:44;31.00;99.90
18884;DHT22;9574;47.282;9.640;2022-08-30T15:27:10;31.10;99.90
18884;DHT22;9574;47.282;9.640;2022-08-30T15:29:37;31.00;99.90
18884;DHT22;9574;47.282;9.640;2022-08-30T15:32:06;31.10;99.90
18884;DHT22;9574;47.282;9.640;2022-08-30T15:34:33;31.30;99.90
18884;DHT22;9574;47.282;9.640;2022-08-30T15:37:00;31.40;99.90
18884;DHT22;9574;47.282;9.640;2022-08-30T15:39:29;31.40;99.90
18884;DHT22;9574;47.282;9.640;2022-08-30T15:41:57;31.30;99.90
18884;DHT22;9574;47.282;9.640;2022-08-30T15:44:24;30.90;99.90
18884;DHT22;9574;47.282;9.640;2022-08-30T15:46:51;30.70;99.90
18884;DHT22;9574;47.282;9.640;2022-08-30T15:49:21;30.40;99.90
18884;DHT22;9574;47.282;9.640;2022-08-30T15:51:50;30.40;99.90
18884;DHT22;9574;47.282;9.640;2022-08-30T15:54:19;30.30;99.90
18884;DHT22;9574;47.282;9.640;2022-08-30T15:56:46;30.40;99.90
18884;DHT22;9574;47.282;9.640;2022-08-30T15:59:13;30.40;99.90
18884;DHT22;9574;47.282;9.640;2022-08-30T16:01:42;30.20;99.90
18884;DHT22;9574;47.282;9.640;2022-08-30T16:04:09;30.30;99.90
18884;DHT22;9574;47.282;9.640;2022-08-30T16:06:38;30.40;99.90
18884;DHT22;9574;47.282;9.640;2022-08-30T16:09:06;30.40;99.50
18884;DHT22;9574;47.282;9.640;2022-08-30T16:11:34;30.40;99.90
18884;DHT22;9574;47.282;9.640;2022-08-30T16:14:02;30.40;99.90
18884;DHT22;9574;47.282;9.640;2022-08-30T16:16:30;30.40;99.90
18884;DHT22;9574;47.282;9.640;2022-08-30T16:18:57;30.40;99.90